Home > Products > Valid Products > TAF

000
FTUS45 KPSR 021720
TAFIWA
TAF
KIWA 021720Z 0218/0318 29005KT P6SM FEW250
     FM021900 27010G20KT P6SM FEW250
     FM030400 VRB04KT P6SM SCT250=



000
FTUS45 KPSR 021720
TAFBLH
TAF
KBLH 021720Z 0218/0318 18008KT P6SM SKC
     FM022000 18010G16KT P6SM SCT250
     FM030900 20006KT P6SM SCT250=



000
FTUS45 KPSR 021720
TAFIWA
TAF
KIWA 021720Z 0218/0318 29005KT P6SM FEW250
     FM021900 27010G20KT P6SM FEW250
     FM030400 VRB04KT P6SM SCT250=



000
FTUS45 KPSR 021720
TAFIWA
TAF
KIWA 021720Z 0218/0318 29005KT P6SM FEW250
     FM021900 27010G20KT P6SM FEW250
     FM030400 VRB04KT P6SM SCT250=



000
FTUS45 KPSR 021720
TAFBLH
TAF
KBLH 021720Z 0218/0318 18008KT P6SM SKC
     FM022000 18010G16KT P6SM SCT250
     FM030900 20006KT P6SM SCT250=



000
FTUS45 KPSR 021720
TAFIPL
TAF
KIPL 021720Z 0218/0318 VRB03KT P6SM SKC
     FM022200 27008KT P6SM FEW250
     FM030300 25012G18KT P6SM SCT250
     FM030900 VRB03KT P6SM SCT250=



000
FTUS45 KPSR 021720
TAFPHX
TAF
KPHX 021720Z 0218/0318 27008KT P6SM FEW250
     FM022000 27014G22KT P6SM FEW250
     FM030400 27006KT P6SM SCT250
     FM031100 10004KT P6SM FEW250=



000
FTUS45 KPSR 021720
TAFIWA
TAF
KIWA 021720Z 0218/0318 29005KT P6SM FEW250
     FM021900 27010G20KT P6SM FEW250
     FM030400 VRB04KT P6SM SCT250=



000
FTUS45 KPSR 021720
TAFIPL
TAF
KIPL 021720Z 0218/0318 VRB03KT P6SM SKC
     FM022200 27008KT P6SM FEW250
     FM030300 25012G18KT P6SM SCT250
     FM030900 VRB03KT P6SM SCT250=



000
FTUS45 KPSR 021720
TAFPHX
TAF
KPHX 021720Z 0218/0318 27008KT P6SM FEW250
     FM022000 27014G22KT P6SM FEW250
     FM030400 27006KT P6SM SCT250
     FM031100 10004KT P6SM FEW250=



000
FTUS45 KPSR 021450 AAA
TAFPHX
TAF AMD
KPHX 021450Z 0215/0312 27008KT P6SM FEW200 BKN250
     FM022000 27014G22KT P6SM FEW120 SCT250
     FM030400 27006KT P6SM SCT250=



000
FTUS45 KPSR 021125
TAFIWA
TAF
KIWA 021125Z 0212/0312 VRB04KT P6SM SCT250
     FM021600 29005KT P6SM SCT250
     FM021900 27010G20KT P6SM FEW120 SCT250
     FM030400 VRB04KT P6SM SCT250
      AMD LTD TO CLD VIS AND WIND TIL 021300=



000
FTUS45 KPSR 021125
TAFBLH
TAF
KBLH 021125Z 0212/0312 18008KT P6SM FEW150 SCT250
     FM022000 18010G16KT P6SM SCT250
     FM030900 20006KT P6SM SCT250=



000
FTUS45 KPSR 021125
TAFPHX
TAF
KPHX 021125Z 0212/0312 27008KT P6SM FEW200 BKN250
     FM022000 27014G22KT P6SM FEW120 SCT250
     FM030400 27006KT P6SM SCT250=



000
FTUS45 KPSR 021125
TAFIWA
TAF
KIWA 021125Z 0212/0312 VRB04KT P6SM SCT250
     FM021600 29005KT P6SM SCT250
     FM021900 27010G20KT P6SM FEW120 SCT250
     FM030400 VRB04KT P6SM SCT250
      AMD LTD TO CLD VIS AND WIND TIL 021300=



000
FTUS45 KPSR 021125
TAFIPL
TAF
KIPL 021125Z 0212/0312 14006KT P6SM SCT120
     FM030000 27008KT P6SM FEW150 SCT250
     FM030300 25012G18KT P6SM SCT120 SCT250=



000
FTUS45 KPSR 021125
TAFIWA
TAF
KIWA 021125Z 0212/0312 VRB04KT P6SM SCT250
     FM021600 29005KT P6SM SCT250
     FM021900 27010G20KT P6SM FEW120 SCT250
     FM030400 VRB04KT P6SM SCT250
      AMD LTD TO CLD VIS AND WIND TIL 021300=



000
FTUS45 KPSR 021125
TAFBLH
TAF
KBLH 021125Z 0212/0312 18008KT P6SM FEW150 SCT250
     FM022000 18010G16KT P6SM SCT250
     FM030900 20006KT P6SM SCT250=



000
FTUS45 KPSR 021125
TAFPHX
TAF
KPHX 021125Z 0212/0312 27008KT P6SM FEW200 BKN250
     FM022000 27014G22KT P6SM FEW120 SCT250
     FM030400 27006KT P6SM SCT250=



000
FTUS45 KPSR 021125
TAFIPL
TAF
KIPL 021125Z 0212/0312 14006KT P6SM SCT120
     FM030000 27008KT P6SM FEW150 SCT250
     FM030300 25012G18KT P6SM SCT120 SCT250=



000
FTUS45 KPSR 021125
TAFIWA
TAF
KIWA 021125Z 0212/0312 VRB04KT P6SM SCT250
     FM021600 29005KT P6SM SCT250
     FM021900 27010G20KT P6SM FEW120 SCT250
     FM030400 VRB04KT P6SM SCT250
      AMD LTD TO CLD VIS AND WIND TIL 021300=



000
FTUS45 KPSR 020840 AAA
TAFPHX
TAF AMD
KPHX 020840Z 0209/0306 27008KT P6SM FEW200 BKN250
     FM021000 VRB06KT P6SM BKN250
      TEMPO 0211/0215 12007KT
     FM022000 27010G20KT P6SM FEW120 SCT250=



000
FTUS45 KPSR 020525
TAFIPL
TAF
KIPL 02340Z 0200/0224 16009KT P6SM FEW120 SCT200
      TEMPO 0206/0209 BKN120
     FM021200 15007KT P6SM BKN250=



000
FTUS45 KPSR 020525
TAFIWA
TAF
KIWA 020525Z 0206/0306 27010KT P6SM SCT150 OVC250
     FM021000 14006KT P6SM BKN250
     FM021700 27006KT P6SM FEW120 SCT250
      TEMPO 0220/0224 27010G20KT
      AMD LTD TO CLD VIS AND WIND TIL 0213=



000
FTUS45 KPSR 020525
TAFPHX
TAF
KPHX 020525Z 0206/0306 27010KT P6SM FEW150 OVC250
     FM021000 VRB06KT P6SM BKN250
      TEMPO 0211/0215 12007KT
     FM022000 27010G20KT P6SM FEW120 SCT250=



000
FTUS45 KPSR 020525
TAFIWA
TAF
KIWA 020525Z 0206/0306 27010KT P6SM SCT150 OVC250
     FM021000 14006KT P6SM BKN250
     FM021700 27006KT P6SM FEW120 SCT250
      TEMPO 0220/0224 27010G20KT
      AMD LTD TO CLD VIS AND WIND TIL 0213=



000
FTUS45 KPSR 020525
TAFBLH
TAF
KBLH 020525Z 0206/0306 18006KT P6SM FEW150 BKN250
     FM022000 18010G16KT P6SM SCT250=



000
FTUS45 KPSR 020257 AAA
TAFPHX
TAF AMD
KPHX 020257Z 0203/0224 27012KT P6SM FEW090 SCT150 OVC250
     FM020800 31006KT P6SM SCT150 BKN250
      TEMPO 0211/0215 12007KT
     FM022000 27010G20KT P6SM FEW120 SCT250=



000
FTUS45 KPSR 012345 CCA
TAFIWA
TAF COR
KIWA 012345Z 0200/0224 27010KT P6SM FEW100 SCT150 OVC250
      TEMPO 0200/0202 27012G20KT
     FM020800 14006KT P6SM SCT120 BKN250
     FM021600 27006KT P6SM FEW120 SCT250
      AMD LTD TO CLD VIS AND WIND 0203/0213=



000
FTUS45 KPSR 012345 CCA
TAFIWA
TAF COR
KIWA 012345Z 0200/0224 27010KT P6SM FEW100 SCT150 OVC250
      TEMPO 0200/0202 27012G20KT
     FM020800 14006KT P6SM SCT120 BKN250
     FM021600 27006KT P6SM FEW120 SCT250
      AMD LTD TO CLD VIS AND WIND 0203/0213=



000
FTUS45 KPSR 012345 CCA
TAFIWA
TAF COR
KIWA 012345Z 0200/0224 27010KT P6SM FEW100 SCT150 OVC250
      TEMPO 0200/0202 27012G20KT
     FM020800 14006KT P6SM SCT120 BKN250
     FM021600 27006KT P6SM FEW120 SCT250
      AMD LTD TO CLD VIS AND WIND 0203/0213=



000
FTUS45 KPSR 012345 CCA
TAFIWA
TAF COR
KIWA 012345Z 0200/0224 27010KT P6SM FEW100 SCT150 OVC250
      TEMPO 0200/0202 27012G20KT
     FM020800 14006KT P6SM SCT120 BKN250
     FM021600 27006KT P6SM FEW120 SCT250
      AMD LTD TO CLD VIS AND WIND 0203/0213=



000
FTUS45 KPSR 012340
TAFPHX
TAF
KPHX 012340Z 0200/0224 27014KT P6SM FEW090 SCT150 OVC250
      TEMPO 0200/0202 27015G24KT
     FM020800 31006KT P6SM SCT150 BKN250
      TEMPO 0211/0215 12007KT
     FM022000 27010G20KT P6SM FEW120 SCT250=



000
FTUS45 KPSR 012340
TAFIWA
TAF
KIWA 012340Z 0200/0224 27010KT P6SM FEW100 SCT150 OVC250
      TEMPO 0200/0202 27012G20KT
     FM020800 14006KT P6SM SCT120 BKN250
     FM021600 27006KT P6SM FEW120 SCT250=



000
FTUS45 KPSR 012340
TAFIPL
TAF
KIPL 012340Z 0200/0224 16009KT P6SM FEW120 OVC150
     FM020300 VRB06KT P6SM BKN150 BKN250
      TEMPO 0203/0207 24006KT
     FM021000 15005KT P6SM FEW150 SCT250=



000
FTUS45 KPSR 012340
TAFIWA
TAF
KIWA 012340Z 0200/0224 27010KT P6SM FEW100 SCT150 OVC250
      TEMPO 0200/0202 27012G20KT
     FM020800 14006KT P6SM SCT120 BKN250
     FM021600 27006KT P6SM FEW120 SCT250=



000
FTUS45 KPSR 012340
TAFBLH
TAF
KBLH 012340Z 0200/0224 15009KT P6SM FEW090 SCT150 BKN250
     FM020300 22012KT P6SM BKN250
     FM021000 18005KT P6SM SCT250=



000
FTUS45 KPSR 012340
TAFPHX
TAF
KPHX 012340Z 0200/0224 27014KT P6SM FEW090 SCT150 OVC250
      TEMPO 0200/0202 27015G24KT
     FM020800 31006KT P6SM SCT150 BKN250
      TEMPO 0211/0215 12007KT
     FM022000 27010G20KT P6SM FEW120 SCT250=



000
FTUS45 KPSR 012203 AAA
TAFIPL
TAF AMD
KIPL 012203Z 0122/0218 13014KT P6SM FEW120 BKN200
     FM020200 24012KT P6SM BKN150 BKN250
     FM021000 VRB05KT P6SM FEW150 SCT250=



000
FTUS45 KPSR 012201 AAB
TAFPHX
TAF AMD
KPHX 012201Z 0122/0218 27014KT P6SM FEW080 SCT120 BKN250
      TEMPO 0122/0202 27015G24KT
     FM020800 31006KT P6SM SCT120 BKN250
      TEMPO 0211/0215 12007KT=



000
FTUS45 KPSR 012201 AAB
TAFPHX
TAF AMD
KPHX 012201Z 0122/0218 27014KT P6SM FEW080 SCT120 BKN250
      TEMPO 0122/0202 27015G24KT
     FM020800 31006KT P6SM SCT120 BKN250
      TEMPO 0211/0215 12007KT=



000
FTUS45 KPSR 012101 AAA
TAFBLH
TAF AMD
KBLH 012101Z 0121/0218 25011KT P6SM FEW090 SCT120 BKN250
     FM020300 24012KT P6SM BKN120 BKN200
     FM021000 18005KT P6SM FEW120 SCT250=



000
FTUS45 KPSR 012101 AAA
TAFBLH
TAF AMD
KBLH 012101Z 0121/0218 25011KT P6SM FEW090 SCT120 BKN250
     FM020300 24012KT P6SM BKN120 BKN200
     FM021000 18005KT P6SM FEW120 SCT250=



000
FTUS45 KPSR 012010 AAA
TAFPHX
TAF AMD
KPHX 012010Z 0120/0218 27014KT P6SM FEW080 SCT120 BKN250
     FM020800 31006KT P6SM SCT120 BKN250
      TEMPO 0211/0215 12007KT=



000
FTUS45 KPSR 012010 AAA
TAFPHX
TAF AMD
KPHX 012010Z 0120/0218 27014KT P6SM FEW080 SCT120 BKN250
     FM020800 31006KT P6SM SCT120 BKN250
      TEMPO 0211/0215 12007KT=



000
FTUS45 KPSR 011722
TAFPHX
TAF
KPHX 011722Z 0118/0218 25008KT P6SM FEW130 SCT250
     FM012200 27014KT P6SM FEW080 SCT120 BKN250
     FM020800 31006KT P6SM SCT120 BKN250
      TEMPO 0211/0215 12007KT=



000
FTUS45 KPSR 011722
TAFIPL
TAF
KIPL 011722Z 0118/0218 VRB06KT P6SM VCSH BKN120 BKN200
     FM012000 18011KT P6SM FEW120 BKN200
     FM020200 24012KT P6SM BKN150 BKN250
     FM021000 VRB05KT P6SM FEW150 SCT250=



000
FTUS45 KPSR 011722
TAFBLH
TAF
KBLH 011722Z 0118/0218 VRB05KT P6SM VCTS SCT090CB BKN120 BKN200
     FM011900 18012KT P6SM FEW090 SCT120 BKN250
     FM020300 24012KT P6SM BKN120 BKN200
     FM021000 18005KT P6SM FEW120 SCT250=



000
FTUS45 KPSR 011722
TAFIWA
TAF
KIWA 011722Z 0118/0218 27011KT P6SM FEW100 SCT120 BKN250
     FM020700 14006KT P6SM SCT120 BKN250
     FM021600 27006KT P6SM FEW120 SCT250=



000
FTUS45 KPSR 011722
TAFIWA
TAF
KIWA 011722Z 0118/0218 27011KT P6SM FEW100 SCT120 BKN250
     FM020700 14006KT P6SM SCT120 BKN250
     FM021600 27006KT P6SM FEW120 SCT250=



000
FTUS45 KPSR 011610 AAB
TAFBLH
TAF AMD
KBLH 011610Z 0116/0212 15012KT P6SM VCTS SCT090CB BKN120 BKN200
      TEMPO 0116/0118 4SM TSRA FEW050 BKN090CB BKN120
     FM011800 20013KT P6SM SCT120 BKN250
     FM020300 24012KT P6SM BKN120 BKN200=



000
FTUS45 KPSR 011510 AAA
TAFBLH
TAF AMD
KBLH 011510Z 0115/0212 15012KT P6SM VCTS SCT090CB BKN120 BKN200
     FM011700 20013KT P6SM SCT120 BKN250
     FM020300 24012KT P6SM BKN120 BKN200=



000
FTUS45 KPSR 011507 AAA
TAFIPL
TAF AMD
KIPL 011507Z 0115/0212 09008KT P6SM VCSH BKN110 BKN200
     FM011700 18012KT P6SM FEW120 BKN200
     FM020200 24014KT P6SM BKN150=



000
FTUS45 KPSR 011446 AAA
TAFPHX
TAF AMD
KPHX 011446Z 0115/0212 15008KT P6SM FEW080 SCT140 SCT250
     FM011700 26013KT P6SM FEW090 SCT120 BKN250
     FM020800 31006KT P6SM SCT120 BKN250=



000
FTUS45 KPSR 011446 AAA
TAFPHX
TAF AMD
KPHX 011446Z 0115/0212 15008KT P6SM FEW080 SCT140 SCT250
     FM011700 26013KT P6SM FEW090 SCT120 BKN250
     FM020800 31006KT P6SM SCT120 BKN250=



000
FTUS45 KPSR 011120
TAFBLH
TAF
KBLH 011120Z 0112/0212 19012KT P6SM VCSH FEW100 BKN120 BKN200
     FM011600 20013KT P6SM SCT120 BKN250
     FM020300 24012KT P6SM BKN120 BKN200=



000
FTUS45 KPSR 011120
TAFIWA
TAF
KIWA 011120Z 0112/0212 13008KT P6SM SCT120 BKN250
     FM011700 28012KT P6SM FEW090 SCT120 BKN250
     FM020600 14006KT P6SM SCT120 BKN250
      AMD LTD TO CLD VIS AND WIND TIL 011300=



000
FTUS45 KPSR 011120
TAFPHX
TAF
KPHX 011120Z 0112/0212 15008KT P6SM SCT150 BKN250
     FM011700 26013KT P6SM FEW090 SCT120 BKN250
     FM020800 31006KT P6SM SCT120 BKN250=



000
FTUS45 KPSR 011120
TAFBLH
TAF
KBLH 011120Z 0112/0212 19012KT P6SM VCSH FEW100 BKN120 BKN200
     FM011600 20013KT P6SM SCT120 BKN250
     FM020300 24012KT P6SM BKN120 BKN200=



000
FTUS45 KPSR 011120
TAFPHX
TAF
KPHX 011120Z 0112/0212 15008KT P6SM SCT150 BKN250
     FM011700 26013KT P6SM FEW090 SCT120 BKN250
     FM020800 31006KT P6SM SCT120 BKN250=



000
FTUS45 KPSR 011120
TAFIWA
TAF
KIWA 011120Z 0112/0212 13008KT P6SM SCT120 BKN250
     FM011700 28012KT P6SM FEW090 SCT120 BKN250
     FM020600 14006KT P6SM SCT120 BKN250
      AMD LTD TO CLD VIS AND WIND TIL 011300=



000
FTUS45 KPSR 011120
TAFIPL
TAF
KIPL 011120Z 0112/0212 12014KT P6SM VCSH BKN120 BKN200
     FM011700 18012KT P6SM FEW120 BKN200
     FM020200 24014KT P6SM BKN150=



000
FTUS45 KPSR 011120
TAFIWA
TAF
KIWA 011120Z 0112/0212 13008KT P6SM SCT120 BKN250
     FM011700 28012KT P6SM FEW090 SCT120 BKN250
     FM020600 14006KT P6SM SCT120 BKN250
      AMD LTD TO CLD VIS AND WIND TIL 011300=



000
FTUS45 KPSR 011120
TAFIPL
TAF
KIPL 011120Z 0112/0212 12014KT P6SM VCSH BKN120 BKN200
     FM011700 18012KT P6SM FEW120 BKN200
     FM020200 24014KT P6SM BKN150=



000
FTUS45 KPSR 011120
TAFIWA
TAF
KIWA 011120Z 0112/0212 13008KT P6SM SCT120 BKN250
     FM011700 28012KT P6SM FEW090 SCT120 BKN250
     FM020600 14006KT P6SM SCT120 BKN250
      AMD LTD TO CLD VIS AND WIND TIL 011300=



000
FTUS45 KPSR 011005 AAE
TAFPHX
TAF AMD
KPHX 011005Z 0110/0206 15007KT P6SM SCT150 SCT250
     FM011700 26012KT P6SM FEW150 FEW250=



000
FTUS45 KPSR 011005 AAE
TAFPHX
TAF AMD
KPHX 011005Z 0110/0206 15007KT P6SM SCT150 SCT250
     FM011700 26012KT P6SM FEW150 FEW250=



000
FTUS45 KPSR 010906 AAB
TAFIWA
TAF AMD
KIWA 010906Z 0109/0206 13008KT P6SM FEW120 BKN250
     FM011700 28010KT P6SM FEW150 SCT250
      AMD LTD TO CLD VIS AND WIND TIL 011300=



000
FTUS45 KPSR 010906 AAB
TAFIWA
TAF AMD
KIWA 010906Z 0109/0206 13008KT P6SM FEW120 BKN250
     FM011700 28010KT P6SM FEW150 SCT250
      AMD LTD TO CLD VIS AND WIND TIL 011300=



000
FTUS45 KPSR 010858 AAA
TAFBLH
TAF AMD
KBLH 010858Z 0109/0206 18013KT P6SM VCSH FEW100 BKN120 BKN200
     FM011500 20014KT P6SM SCT100 BKN250=



000
FTUS45 KPSR 010857 AAA
TAFIPL
TAF AMD
KIPL 010857Z 0109/0206 13013KT P6SM VCSH BKN120 BKN200
     FM011500 13005KT P6SM FEW120 BKN250=



000
FTUS45 KPSR 010856 AAD
TAFPHX
TAF AMD
KPHX 010856Z 0109/0206 29005KT P6SM SCT150 BKN250
     FM011700 26012KT P6SM FEW150 FEW250=



000
FTUS45 KPSR 010747 AAC
TAFPHX
TAF AMD
KPHX 010747Z 0108/0206 18007KT P6SM SCT120 BKN200
     FM011000 23006KT P6SM SCT150 SCT250
     FM011700 26012KT P6SM FEW150 FEW250=



000
FTUS45 KPSR 010557 RRA
TAFIWA
TAF
KIWA 010557Z 0106/0206 23009KT P6SM SCT090 BKN150 BKN200
     FM010900 VRB06KT P6SM FEW090 SCT120 BKN200
     FM011800 26008KT P6SM FEW150 SCT250
      AMD LTD TO CLD VIS AND WIND TIL 0113=



000
FTUS45 KPSR 010557 RRA
TAFIPL
TAF
KIPL 010557Z 0106/0206 14006KT P6SM BKN250
     FM011000 VRB05KT P6SM VCSH BKN120 BKN180
     FM011800 15007KT P6SM FEW120 SCT250=



000
FTUS45 KPSR 010557 RRA
TAFPHX
TAF
KPHX 010557Z 0106/0206 28009KT P6SM VCSH FEW100 BKN150 BKN200
     FM011000 VRB06KT P6SM SCT150 BKN200
     FM012000 27010KT P6SM FEW150 FEW250=



000
FTUS45 KPSR 010557 RRA
TAFIWA
TAF
KIWA 010557Z 0106/0206 23009KT P6SM SCT090 BKN150 BKN200
     FM010900 VRB06KT P6SM FEW090 SCT120 BKN200
     FM011800 26008KT P6SM FEW150 SCT250
      AMD LTD TO CLD VIS AND WIND TIL 0113=



000
FTUS45 KPSR 010557 RRA
TAFBLH
TAF
KBLH 010557Z 0106/0206 21009KT P6SM VCTS FEW100CB BKN150 BKN200
     FM011200 VRB06KT P6SM VCSH SCT090 BKN120 BKN200
     FM011800 20014KT P6SM SCT100 BKN250=



000
FTUS45 KPSR 010557 RRA
TAFIWA
TAF
KIWA 010557Z 0106/0206 23009KT P6SM SCT090 BKN150 BKN200
     FM010900 VRB06KT P6SM FEW090 SCT120 BKN200
     FM011800 26008KT P6SM FEW150 SCT250
      AMD LTD TO CLD VIS AND WIND TIL 0113=



000
FTUS45 KPSR 010557 RRA
TAFBLH
TAF
KBLH 010557Z 0106/0206 21009KT P6SM VCTS FEW100CB BKN150 BKN200
     FM011200 VRB06KT P6SM VCSH SCT090 BKN120 BKN200
     FM011800 20014KT P6SM SCT100 BKN250=



000
FTUS45 KPSR 010557 RRA
TAFIWA
TAF
KIWA 010557Z 0106/0206 23009KT P6SM SCT090 BKN150 BKN200
     FM010900 VRB06KT P6SM FEW090 SCT120 BKN200
     FM011800 26008KT P6SM FEW150 SCT250
      AMD LTD TO CLD VIS AND WIND TIL 0113=



000
FTUS45 KPSR 010557 RRA
TAFIPL
TAF
KIPL 010557Z 0106/0206 14006KT P6SM BKN250
     FM011000 VRB05KT P6SM VCSH BKN120 BKN180
     FM011800 15007KT P6SM FEW120 SCT250=



000
FTUS45 KPSR 010557 RRA
TAFPHX
TAF
KPHX 010557Z 0106/0206 28009KT P6SM VCSH FEW100 BKN150 BKN200
     FM011000 VRB06KT P6SM SCT150 BKN200
     FM012000 27010KT P6SM FEW150 FEW250=



000
FTUS45 KPSR 010310 AAB
TAFPHX
TAF AMD
KPHX 010310Z 0103/0124 28009KT P6SM FEW100 BKN150 BKN200
     FM010400 VRB06KT P6SM VCTS SCT090CB OVC150
     FM010800 12008KT P6SM BKN120 BKN200=



000
FTUS45 KPSR 010310 AAB
TAFPHX
TAF AMD
KPHX 010310Z 0103/0124 28009KT P6SM FEW100 BKN150 BKN200
     FM010400 VRB06KT P6SM VCTS SCT090CB OVC150
     FM010800 12008KT P6SM BKN120 BKN200=



000
FTUS45 KPSR 010151 AAA
TAFPHX
TAF AMD
KPHX 010151Z 0102/0124 28012KT P6SM VCSH FEW100 BKN150 BKN200
      TEMPO 0102/0103 -SHRA BKN100
     FM010400 VRB06KT P6SM VCTS SCT090CB OVC150
     FM010800 12008KT P6SM BKN120 BKN200=



000
FTUS45 KPSR 010151 AAA
TAFPHX
TAF AMD
KPHX 010151Z 0102/0124 28012KT P6SM VCSH FEW100 BKN150 BKN200
      TEMPO 0102/0103 -SHRA BKN100
     FM010400 VRB06KT P6SM VCTS SCT090CB OVC150
     FM010800 12008KT P6SM BKN120 BKN200=



000
FTUS45 KPSR 010148 AAA
TAFIWA
TAF AMD
KIWA 010148Z 0102/0124 29010G16KT P6SM VCSH SCT090 BKN150 BKN200
      TEMPO 0102/0103 -SHRA BKN090
     FM010300 09012KT P6SM VCTS SCT090CB OVC140
     FM010800 12006KT P6SM FEW090 BKN120 BKN200
      AMD LTD TO CLD VIS AND WIND 0103/0113=



000
FTUS45 KPSR 010148 AAA
TAFIWA
TAF AMD
KIWA 010148Z 0102/0124 29010G16KT P6SM VCSH SCT090 BKN150 BKN200
      TEMPO 0102/0103 -SHRA BKN090
     FM010300 09012KT P6SM VCTS SCT090CB OVC140
     FM010800 12006KT P6SM FEW090 BKN120 BKN200
      AMD LTD TO CLD VIS AND WIND 0103/0113=



000
FTUS45 KPSR 302344
TAFIWA
TAF
KIWA 302344Z 0100/0124 29010G16KT P6SM FEW080 SCT120 BKN200
     FM010200 09012KT P6SM VCTS BKN090CB OVC140
     FM010800 12006KT P6SM FEW090 BKN120 BKN200=



000
FTUS45 KPSR 302344
TAFBLH
TAF
KBLH 302344Z 0100/0124 21012G18KT P6SM FEW120 SCT250
     FM010700 VRB06KT P6SM VCSH FEW080 BKN100 BKN200
     FM011500 20014KT P6SM SCT100 BKN200=



000
FTUS45 KPSR 302344
TAFIWA
TAF
KIWA 302344Z 0100/0124 29010G16KT P6SM FEW080 SCT120 BKN200
     FM010200 09012KT P6SM VCTS BKN090CB OVC140
     FM010800 12006KT P6SM FEW090 BKN120 BKN200=



000
FTUS45 KPSR 302344
TAFPHX
TAF
KPHX 302344Z 0100/0124 28012G21KT P6SM FEW120 BKN200
     FM010300 VRB06KT P6SM VCTS SCT090CB OVC150
     FM010800 12008KT P6SM BKN120 BKN200=



000
FTUS45 KPSR 302344
TAFIPL
TAF
KIPL 302344Z 0100/0124 VRB06KT P6SM FEW120 SCT250
     FM010300 23010KT P6SM FEW100 SCT250
     FM011000 VRB05KT P6SM VCSH BKN090 BKN140=



000
FTUS45 KPSR 302344
TAFIPL
TAF
KIPL 302344Z 0100/0124 VRB06KT P6SM FEW120 SCT250
     FM010300 23010KT P6SM FEW100 SCT250
     FM011000 VRB05KT P6SM VCSH BKN090 BKN140=



000
FTUS45 KPSR 302344
TAFIWA
TAF
KIWA 302344Z 0100/0124 29010G16KT P6SM FEW080 SCT120 BKN200
     FM010200 09012KT P6SM VCTS BKN090CB OVC140
     FM010800 12006KT P6SM FEW090 BKN120 BKN200=



000
FTUS45 KPSR 302344
TAFBLH
TAF
KBLH 302344Z 0100/0124 21012G18KT P6SM FEW120 SCT250
     FM010700 VRB06KT P6SM VCSH FEW080 BKN100 BKN200
     FM011500 20014KT P6SM SCT100 BKN200=



000
FTUS45 KPSR 302344
TAFPHX
TAF
KPHX 302344Z 0100/0124 28012G21KT P6SM FEW120 BKN200
     FM010300 VRB06KT P6SM VCTS SCT090CB OVC150
     FM010800 12008KT P6SM BKN120 BKN200=



000
FTUS45 KPSR 302344
TAFIWA
TAF
KIWA 302344Z 0100/0124 29010G16KT P6SM FEW080 SCT120 BKN200
     FM010200 09012KT P6SM VCTS BKN090CB OVC140
     FM010800 12006KT P6SM FEW090 BKN120 BKN200=



000
FTUS45 KPSR 302200 AAA
TAFBLH
TAF AMD
KBLH 302200Z 3022/0118 23015G22KT P6SM FEW150 SCT250
     FM302300 21012KT P6SM SCT120
     FM010900 18012KT P6SM VCSH FEW080 BKN100 BKN200
     FM011500 20014KT P6SM SCT100 BKN200=



000
FTUS45 KPSR 302055 AAB
TAFPHX
TAF AMD
KPHX 302055Z 3021/0118 28012G21KT P6SM FEW120 FEW250
     FM302200 28012KT P6SM FEW080 SCT120 BKN200
     FM010400 11010KT P6SM VCTS BKN090CB OVC150
     FM010800 12008KT P6SM BKN120 BKN200=



000
FTUS45 KPSR 301910 AAA
TAFIWA
TAF AMD
KIWA 301910Z 3019/0118 29012KT P6SM FEW120 SCT250
      TEMPO 3019/3022 29015G21KT
     FM302200 29010KT P6SM SCT080 SCT120 BKN200
     FM010300 09012KT P6SM VCTS BKN090CB OVC140
     FM010800 12006KT P6SM FEW090 BKN120 BKN200=



000
FTUS45 KPSR 301910 AAA
TAFIWA
TAF AMD
KIWA 301910Z 3019/0118 29012KT P6SM FEW120 SCT250
      TEMPO 3019/3022 29015G21KT
     FM302200 29010KT P6SM SCT080 SCT120 BKN200
     FM010300 09012KT P6SM VCTS BKN090CB OVC140
     FM010800 12006KT P6SM FEW090 BKN120 BKN200=



000
FTUS45 KPSR 301908 AAA
TAFIPL
TAF AMD
KIPL 301908Z 3019/0118 18012KT P6SM VCSH BKN120 BKN200
      TEMPO 3019/3022 16018G25KT
     FM010100 23010KT P6SM SCT100 BKN250
     FM011000 VRB05KT P6SM VCSH BKN090 BKN140=



000
FTUS45 KPSR 301905 AAA
TAFPHX
TAF AMD
KPHX 301905Z 3019/0118 27010KT P6SM FEW120 SCT250
      TEMPO 3019/3022 27015G22KT
     FM302200 28012KT P6SM FEW080 SCT120 BKN200
     FM010400 11010KT P6SM VCTS BKN090CB OVC150
     FM010800 12008KT P6SM BKN120 BKN200=



000
FTUS45 KPSR 301905 AAA
TAFPHX
TAF AMD
KPHX 301905Z 3019/0118 27010KT P6SM FEW120 SCT250
      TEMPO 3019/3022 27015G22KT
     FM302200 28012KT P6SM FEW080 SCT120 BKN200
     FM010400 11010KT P6SM VCTS BKN090CB OVC150
     FM010800 12008KT P6SM BKN120 BKN200=



000
FTUS45 KPSR 301725
TAFIWA
TAF
KIWA 301725Z 3018/0118 28008KT P6SM FEW120 SCT250
     FM302200 29010KT P6SM SCT080 SCT120 BKN200
     FM010300 09012KT P6SM VCTS BKN090CB OVC140
     FM010800 12006KT P6SM FEW090 BKN120 BKN200=



000
FTUS45 KPSR 301725
TAFIPL
TAF
KIPL 301725Z 3018/0118 16012KT P6SM FEW150 BKN250
     FM302000 18012KT P6SM VCSH BKN120 BKN200
     FM010100 23010KT P6SM SCT100 BKN250
     FM011000 VRB05KT P6SM VCSH BKN090 BKN140=



000
FTUS45 KPSR 301725
TAFPHX
TAF
KPHX 301725Z 3018/0118 27010KT P6SM FEW120 SCT250
     FM302200 28012KT P6SM FEW080 SCT120 BKN200
     FM010400 11010KT P6SM VCTS BKN090CB OVC150
     FM010800 12008KT P6SM BKN120 BKN200=



000
FTUS45 KPSR 301725
TAFBLH
TAF
KBLH 301725Z 3018/0118 18015G25KT P6SM FEW150 SCT250
     FM302300 21012KT P6SM SCT120
     FM010900 18012KT P6SM VCSH FEW080 BKN100 BKN200
     FM011500 20014KT P6SM SCT100 BKN200=



000
FTUS45 KPSR 301725
TAFIWA
TAF
KIWA 301725Z 3018/0118 28008KT P6SM FEW120 SCT250
     FM302200 29010KT P6SM SCT080 SCT120 BKN200
     FM010300 09012KT P6SM VCTS BKN090CB OVC140
     FM010800 12006KT P6SM FEW090 BKN120 BKN200=



000
FTUS45 KPSR 301518 AAA
TAFIPL
TAF AMD
KIPL 301518Z 3015/0112 12010KT P6SM FEW150 BKN250
      TEMPO 3015/3017 14020KT
     FM302100 18009KT P6SM SCT100
     FM010100 23010KT P6SM SCT100 BKN250
     FM011000 VRB05KT P6SM VCSH BKN090=



000
FTUS45 KPSR 301518 AAA
TAFIPL
TAF AMD
KIPL 301518Z 3015/0112 12010KT P6SM FEW150 BKN250
      TEMPO 3015/3017 14020KT
     FM302100 18009KT P6SM SCT100
     FM010100 23010KT P6SM SCT100 BKN250
     FM011000 VRB05KT P6SM VCSH BKN090=



000
FTUS45 KPSR 301513 AAA
TAFIWA
TAF AMD
KIWA 301513Z 3015/0112 17009KT P6SM FEW100 SCT150 SCT250
     FM301700 28008KT P6SM FEW120 SCT250
     FM010500 09009KT P6SM VCTS BKN090CB OVC150
     FM010800 12006KT P6SM BKN120 BKN200=



000
FTUS45 KPSR 301513 AAA
TAFIWA
TAF AMD
KIWA 301513Z 3015/0112 17009KT P6SM FEW100 SCT150 SCT250
     FM301700 28008KT P6SM FEW120 SCT250
     FM010500 09009KT P6SM VCTS BKN090CB OVC150
     FM010800 12006KT P6SM BKN120 BKN200=



000
FTUS45 KPSR 301454 AAA
TAFPHX
TAF AMD
KPHX 301454Z 3015/0112 14006KT P6SM FEW160 SCT250
     FM301700 26008KT P6SM FEW120 SCT250
     FM010500 11010KT P6SM VCTS BKN090CB OVC150
     FM010800 VRB05KT P6SM BKN120 BKN200=



000
FTUS45 KPSR 301454 AAA
TAFPHX
TAF AMD
KPHX 301454Z 3015/0112 14006KT P6SM FEW160 SCT250
     FM301700 26008KT P6SM FEW120 SCT250
     FM010500 11010KT P6SM VCTS BKN090CB OVC150
     FM010800 VRB05KT P6SM BKN120 BKN200=



000
FTUS45 KPSR 301120
TAFIWA
TAF
KIWA 301120Z 3012/0112 12006KT P6SM FEW150 BKN250
     FM301700 28008KT P6SM FEW120 SCT250
     FM010500 09009KT P6SM VCTS BKN090CB OVC150
     FM010800 12006KT P6SM BKN120 BKN200
      AMD LTD TO CLD VIS AND WIND TIL 301300=



000
FTUS45 KPSR 301120
TAFPHX
TAF
KPHX 301120Z 3012/0112 11005KT P6SM FEW150 BKN250
     FM301700 26008KT P6SM FEW120 SCT250
     FM010500 11010KT P6SM VCTS BKN090CB OVC150
     FM010800 VRB05KT P6SM BKN120 BKN200=



000
FTUS45 KPSR 301120
TAFIWA
TAF
KIWA 301120Z 3012/0112 12006KT P6SM FEW150 BKN250
     FM301700 28008KT P6SM FEW120 SCT250
     FM010500 09009KT P6SM VCTS BKN090CB OVC150
     FM010800 12006KT P6SM BKN120 BKN200
      AMD LTD TO CLD VIS AND WIND TIL 301300=



000
FTUS45 KPSR 301120
TAFIWA
TAF
KIWA 301120Z 3012/0112 12006KT P6SM FEW150 BKN250
     FM301700 28008KT P6SM FEW120 SCT250
     FM010500 09009KT P6SM VCTS BKN090CB OVC150
     FM010800 12006KT P6SM BKN120 BKN200
      AMD LTD TO CLD VIS AND WIND TIL 301300=



000
FTUS45 KPSR 301120
TAFPHX
TAF
KPHX 301120Z 3012/0112 11005KT P6SM FEW150 BKN250
     FM301700 26008KT P6SM FEW120 SCT250
     FM010500 11010KT P6SM VCTS BKN090CB OVC150
     FM010800 VRB05KT P6SM BKN120 BKN200=



000
FTUS45 KPSR 301120
TAFIPL
TAF
KIPL 301120Z 3012/0112 12006KT P6SM FEW150 BKN250
     FM302100 18009KT P6SM SCT100
     FM010100 23010KT P6SM SCT100 BKN250
     FM011000 VRB05KT P6SM VCSH BKN090=



000
FTUS45 KPSR 301120
TAFIPL
TAF
KIPL 301120Z 3012/0112 12006KT P6SM FEW150 BKN250
     FM302100 18009KT P6SM SCT100
     FM010100 23010KT P6SM SCT100 BKN250
     FM011000 VRB05KT P6SM VCSH BKN090=



000
FTUS45 KPSR 301120
TAFBLH
TAF
KBLH 301120Z 3012/0112 17008KT P6SM FEW150 BKN250
     FM302300 23011KT P6SM SCT120
     FM010900 VRB05KT P6SM VCSH BKN100=



000
FTUS45 KPSR 301120
TAFBLH
TAF
KBLH 301120Z 3012/0112 17008KT P6SM FEW150 BKN250
     FM302300 23011KT P6SM SCT120
     FM010900 VRB05KT P6SM VCSH BKN100=



000
FTUS45 KPSR 301120
TAFIWA
TAF
KIWA 301120Z 3012/0112 12006KT P6SM FEW150 BKN250
     FM301700 28008KT P6SM FEW120 SCT250
     FM010500 09009KT P6SM VCTS BKN090CB OVC150
     FM010800 12006KT P6SM BKN120 BKN200
      AMD LTD TO CLD VIS AND WIND TIL 301300=



000
FTUS45 KPSR 300855 AAB
TAFPHX
TAF AMD
KPHX 300855Z 3009/0106 11008KT P6SM FEW150 BKN200
     FM301800 27008KT P6SM FEW110 SCT250=



000
FTUS45 KPSR 300855 AAB
TAFPHX
TAF AMD
KPHX 300855Z 3009/0106 11008KT P6SM FEW150 BKN200
     FM301800 27008KT P6SM FEW110 SCT250=



000
FTUS45 KPSR 300730 AAA
TAFIWA
TAF AMD
KIWA 300730Z 3008/0106 14006KT P6SM SCT120 BKN200
     FM301800 28008KT P6SM FEW120 SCT200
      AMD LTD TO CLD VIS AND WIND TIL 301300=



000
FTUS45 KPSR 300730 AAA
TAFIWA
TAF AMD
KIWA 300730Z 3008/0106 14006KT P6SM SCT120 BKN200
     FM301800 28008KT P6SM FEW120 SCT200
      AMD LTD TO CLD VIS AND WIND TIL 301300=



000
FTUS45 KPSR 300730 AAA
TAFIWA
TAF AMD
KIWA 300730Z 3008/0106 14006KT P6SM SCT120 BKN200
     FM301800 28008KT P6SM FEW120 SCT200
      AMD LTD TO CLD VIS AND WIND TIL 301300=



000
FTUS45 KPSR 300618 AAA
TAFPHX
TAF AMD
KPHX 300618Z 3006/0106 33010KT P6SM VCTS SCT070CB BKN100 BKN200
     FM300700 VRB06KT P6SM FEW070 BKN100 BKN200
     FM301000 12008KT P6SM SCT150 BKN200
     FM301800 27007KT P6SM FEW120 SCT200=



000
FTUS45 KPSR 300618 AAA
TAFPHX
TAF AMD
KPHX 300618Z 3006/0106 33010KT P6SM VCTS SCT070CB BKN100 BKN200
     FM300700 VRB06KT P6SM FEW070 BKN100 BKN200
     FM301000 12008KT P6SM SCT150 BKN200
     FM301800 27007KT P6SM FEW120 SCT200=



000
FTUS45 KPSR 300529
TAFPHX
TAF
KPHX 300529Z 3006/0106 07013G22KT P6SM VCTS SCT070CB BKN100 BKN200
     FM300730 VRB06KT P6SM FEW070 BKN100 BKN200
     FM301000 12008KT P6SM SCT150 BKN200
     FM301800 27007KT P6SM FEW120 SCT200=



000
FTUS45 KPSR 300529
TAFBLH
TAF
KBLH 300529Z 3006/0106 21008KT P6SM SCT150 BKN200
     FM301700 16012KT P6SM FEW120 SCT250=



000
FTUS45 KPSR 300529
TAFPHX
TAF
KPHX 300529Z 3006/0106 07013G22KT P6SM VCTS SCT070CB BKN100 BKN200
     FM300730 VRB06KT P6SM FEW070 BKN100 BKN200
     FM301000 12008KT P6SM SCT150 BKN200
     FM301800 27007KT P6SM FEW120 SCT200=



000
FTUS45 KPSR 300529
TAFIPL
TAF
KIPL 300529Z 3006/0106 16007KT P6SM BKN250
     FM302300 22008KT P6SM SCT250=



000
FTUS45 KPSR 300529
TAFIWA
TAF
KIWA 300529Z 3006/0106 07012KT P6SM BKN120 OVC200
     FM300900 14006KT P6SM SCT120 BKN200
     FM301800 28008KT P6SM FEW120 SCT200
      AMD LTD TO CLD VIS AND WIND TIL 301300=



000
FTUS45 KPSR 300529 AAF
TAFPHX
TAF AMD
KPHX 300529Z 3005/3024 32012KT P6SM FEW070 BKN100 BKN200
     FM300545 07011G22KT P6SM VCTS SCT070CB BKN100 BKN200
     FM300700 29007KT P6SM FEW070 BKN100 BKN200
     FM301100 12008KT P6SM SCT140 BKN200
     FM301800 27007KT P6SM FEW120 SCT200=



000
FTUS45 KPSR 300529
TAFIWA
TAF
KIWA 300529Z 3006/0106 07012KT P6SM BKN120 OVC200
     FM300900 14006KT P6SM SCT120 BKN200
     FM301800 28008KT P6SM FEW120 SCT200
      AMD LTD TO CLD VIS AND WIND TIL 301300=



000
FTUS45 KPSR 300456 AAE
TAFPHX
TAF AMD
KPHX 300456Z 3005/3024 32012G22KT P6SM FEW070 BKN100 BKN200
     FM300530 29007KT P6SM VCTS SCT070CB BKN100 BKN200
     FM300700 29007KT P6SM FEW070 BKN100 BKN200
     FM301100 12008KT P6SM SCT140 BKN200
     FM301800 27007KT P6SM FEW120 SCT200=



000
FTUS45 KPSR 300323 AAD
TAFPHX
TAF AMD
KPHX 300323Z 3003/3024 26008KT P6SM FEW070 BKN100 BKN200
     FM300400 32018G28KT P6SM FEW070 BKN100 BKN200
     FM300600 29007KT P6SM FEW070 BKN100 BKN200
     FM301100 12008KT P6SM SCT140 BKN200
     FM301800 27007KT P6SM FEW120 SCT200=



000
FTUS45 KPSR 300256 AAC
TAFPHX
TAF AMD
KPHX 300256Z 3003/3024 26008KT P6SM FEW070 BKN100 BKN200
     FM301100 12008KT P6SM SCT140 BKN200
     FM301800 27007KT P6SM FEW120 SCT200=



000
FTUS45 KPSR 300256 AAC
TAFPHX
TAF AMD
KPHX 300256Z 3003/3024 26008KT P6SM FEW070 BKN100 BKN200
     FM301100 12008KT P6SM SCT140 BKN200
     FM301800 27007KT P6SM FEW120 SCT200=



000
FTUS45 KPSR 300253 AAA
TAFIWA
TAF AMD
KIWA 300253Z 3003/3024 28008KT P6SM BKN120 OVC200
     FM300900 14006KT P6SM SCT120 BKN200
     FM301800 28008KT P6SM FEW120 SCT200
      AMD LTD TO CLD VIS AND WIND 3003/3013=



000
FTUS45 KPSR 300253 AAA
TAFIWA
TAF AMD
KIWA 300253Z 3003/3024 28008KT P6SM BKN120 OVC200
     FM300900 14006KT P6SM SCT120 BKN200
     FM301800 28008KT P6SM FEW120 SCT200
      AMD LTD TO CLD VIS AND WIND 3003/3013=



000
FTUS45 KPSR 300253 AAA
TAFIWA
TAF AMD
KIWA 300253Z 3003/3024 28008KT P6SM BKN120 OVC200
     FM300900 14006KT P6SM SCT120 BKN200
     FM301800 28008KT P6SM FEW120 SCT200
      AMD LTD TO CLD VIS AND WIND 3003/3013=



000
FTUS45 KPSR 300253 AAA
TAFIWA
TAF AMD
KIWA 300253Z 3003/3024 28008KT P6SM BKN120 OVC200
     FM300900 14006KT P6SM SCT120 BKN200
     FM301800 28008KT P6SM FEW120 SCT200
      AMD LTD TO CLD VIS AND WIND 3003/3013=



000
FTUS45 KPSR 300235 AAB
TAFPHX
TAF AMD
KPHX 300235Z 3003/3024 28012KT P6SM FEW070 BKN100 BKN200
     FM300330 24012KT 5SM BLDU FEW070 BKN100 BKN200
     FM300700 25008KT P6SM BKN120 BKN200
     FM301100 12008KT P6SM SCT140 BKN200
     FM301800 27007KT P6SM FEW120 SCT200=



000
FTUS45 KPSR 300201 AAA
TAFPHX
TAF AMD
KPHX 300201Z 3002/3024 28012KT P6SM FEW070 BKN100 BKN200
     FM300300 20012KT 5SM BLDU FEW070 BKN100 BKN200
     FM300700 25008KT P6SM BKN120 BKN200
     FM301100 12008KT P6SM SCT140 BKN200
     FM301800 27007KT P6SM FEW120 SCT200=



000
FTUS45 KPSR 292320
TAFIWA
TAF
KIWA 292320Z 3000/3024 29012KT P6SM SCT120 BKN200
     FM300500 28008KT P6SM BKN120 OVC200
     FM300900 14006KT P6SM SCT120 BKN200
     FM301800 28008KT P6SM FEW120 SCT200
      AMD LTD TO CLD VIS AND WIND 3003/3013=



000
FTUS45 KPSR 292320
TAFPHX
TAF
KPHX 292320Z 3000/3024 26012G20KT P6SM SCT120 BKN200
     FM300700 25008KT P6SM BKN120 BKN200
     FM301100 12008KT P6SM SCT140 BKN200
     FM301800 27007KT P6SM FEW120 SCT200=



000
FTUS45 KPSR 292320
TAFIWA
TAF
KIWA 292320Z 3000/3024 29012KT P6SM SCT120 BKN200
     FM300500 28008KT P6SM BKN120 OVC200
     FM300900 14006KT P6SM SCT120 BKN200
     FM301800 28008KT P6SM FEW120 SCT200
      AMD LTD TO CLD VIS AND WIND 3003/3013=



000
FTUS45 KPSR 292320
TAFIPL
TAF
KIPL 292320Z 3000/3024 26008KT P6SM SCT250
     FM300800 13007KT P6SM FEW120 SCT250=



000
FTUS45 KPSR 292320
TAFBLH
TAF
KBLH 292320Z 3000/3024 20010KT P6SM FEW200
     FM300900 18007KT P6SM SCT120 SCT200
     FM301700 18012KT P6SM FEW120 SCT200=



000
FTUS45 KPSR 292049 AAA
TAFPHX
TAF AMD
KPHX 292049Z 2921/3018 24008KT P6SM FEW100 SCT250
     FM292200 26012G20KT P6SM FEW080 SCT120 BKN200
     FM300700 25008KT P6SM SCT080 BKN120 BKN200
     FM301100 12008KT P6SM SCT140 BKN200
     FM301500 10006KT P6SM FEW150 SCT250=



000
FTUS45 KPSR 292014 AAA
TAFBLH
TAF AMD
KBLH 292014Z 2920/3018 15012KT P6SM FEW110 FEW250
     FM292300 21010KT P6SM FEW200
     FM300900 18007KT P6SM SCT120 SCT200=



    US Dept of Commerce
    National Oceanic and Atmospheric Administration
    National Weather Service
    1325 East West Highway
    Silver Spring, MD 20910
    Page Author: NWS Internet Services Team
Disclaimer
Information Quality
Credits
Glossary
Privacy Policy
Freedom of Information Act (FOIA)
About Us
Career Opportunities